createdAt,value
2022-12-13T00:00:57.095Z,-4.80
2022-12-13T00:03:23.879Z,-4.80
2022-12-13T00:05:50.620Z,-4.80
2022-12-13T00:08:17.444Z,-4.80
2022-12-13T00:10:44.224Z,-4.80
2022-12-13T00:13:10.856Z,-4.90
2022-12-13T00:15:37.539Z,-4.90
2022-12-13T00:18:04.453Z,-4.90
2022-12-13T00:20:31.180Z,-4.90
2022-12-13T00:22:57.869Z,-4.90
2022-12-13T00:25:24.813Z,-4.90
2022-12-13T00:27:51.583Z,-4.90
2022-12-13T00:30:18.280Z,-4.90
2022-12-13T00:32:44.920Z,-4.90
2022-12-13T00:35:11.778Z,-4.90
2022-12-13T00:37:38.595Z,-4.90
2022-12-13T00:40:05.800Z,-4.90
2022-12-13T00:42:32.441Z,-4.90
2022-12-13T00:44:59.090Z,-4.80
2022-12-13T00:47:26.135Z,-4.90
2022-12-13T00:49:52.769Z,-4.90
2022-12-13T00:52:19.437Z,-5.00
2022-12-13T00:54:46.123Z,-4.90
2022-12-13T00:57:12.800Z,-5.00
2022-12-13T00:59:39.527Z,-5.00
2022-12-13T01:02:06.189Z,-5.00
2022-12-13T01:04:32.907Z,-5.00
2022-12-13T01:06:59.614Z,-5.00
2022-12-13T01:09:29.681Z,-5.10
2022-12-13T01:11:58.719Z,-5.10
2022-12-13T01:14:26.273Z,-5.10
2022-12-13T01:16:56.002Z,-5.10
2022-12-13T01:19:27.750Z,-5.10
2022-12-13T01:22:00.165Z,-3.90
2022-12-13T01:24:27.647Z,-5.10
2022-12-13T01:26:57.132Z,-5.20
2022-12-13T01:29:26.024Z,-5.20
2022-12-13T01:31:53.578Z,-5.20
2022-12-13T01:34:21.828Z,-5.20
2022-12-13T01:36:58.253Z,-5.20
2022-12-13T01:39:26.905Z,-5.20
2022-12-13T01:41:59.312Z,-5.20
2022-12-13T01:45:03.424Z,-5.20
2022-12-13T01:47:46.841Z,-5.20
2022-12-13T01:50:20.325Z,-5.20
2022-12-13T01:52:47.917Z,-5.20
2022-12-13T01:55:15.291Z,-5.20
2022-12-13T01:57:45.677Z,-5.20
2022-12-13T02:00:13.748Z,-5.20
2022-12-13T02:02:40.517Z,-5.20
2022-12-13T02:05:11.518Z,-5.20
2022-12-13T02:07:41.260Z,-5.20
2022-12-13T02:10:08.982Z,-5.20
2022-12-13T02:12:37.244Z,-5.10
2022-12-13T02:15:08.155Z,-5.20
2022-12-13T02:18:10.646Z,-5.20
2022-12-13T02:20:45.617Z,-5.20
2022-12-13T02:23:48.151Z,-5.20
2022-12-13T02:26:36.335Z,-5.20
2022-12-13T02:29:30.759Z,-5.30
2022-12-13T02:32:12.120Z,-5.30
2022-12-13T02:34:40.280Z,-5.30
2022-12-13T02:37:33.414Z,-5.30
2022-12-13T02:40:18.148Z,-5.30
2022-12-13T02:42:58.116Z,-5.10
2022-12-13T02:45:34.296Z,-5.30
2022-12-13T02:48:02.221Z,-5.30
2022-12-13T02:50:29.946Z,-5.20
2022-12-13T02:52:57.142Z,-5.30
2022-12-13T02:55:28.081Z,-5.30
2022-12-13T02:57:55.764Z,-5.30
2022-12-13T03:00:49.677Z,-5.20
2022-12-13T03:03:42.124Z,-5.20
2022-12-13T03:06:33.486Z,-5.20
2022-12-13T03:09:35.225Z,-5.30
2022-12-13T03:12:32.664Z,-5.30
2022-12-13T03:15:03.563Z,-5.30
2022-12-13T03:17:36.484Z,-5.30
2022-12-13T03:20:12.775Z,-5.30
2022-12-13T03:22:49.759Z,-5.30
2022-12-13T03:25:31.639Z,-5.40
2022-12-13T03:28:01.031Z,-5.40
2022-12-13T03:30:28.883Z,-5.40
2022-12-13T03:32:55.575Z,-5.50
2022-12-13T03:35:22.891Z,-5.50
2022-12-13T03:37:50.183Z,-5.50
2022-12-13T03:40:18.444Z,-5.50
2022-12-13T03:42:45.364Z,-5.50
2022-12-13T03:45:12.549Z,-5.50
2022-12-13T03:47:39.481Z,-5.60
2022-12-13T03:50:25.754Z,-5.60
2022-12-13T03:52:59.551Z,-5.60
2022-12-13T03:55:26.744Z,-5.60
2022-12-13T03:57:53.511Z,-5.70
2022-12-13T04:00:20.319Z,-5.70
2022-12-13T04:02:47.183Z,-5.70
2022-12-13T04:05:14.342Z,-3.90
2022-12-13T04:07:41.273Z,-5.70
2022-12-13T04:10:25.385Z,-5.70
2022-12-13T04:13:12.592Z,-5.80
2022-12-13T04:15:39.854Z,-5.80
2022-12-13T04:18:06.904Z,-5.80
2022-12-13T04:20:33.840Z,-5.80
2022-12-13T04:23:00.757Z,-5.80
2022-12-13T04:25:37.245Z,-5.80
2022-12-13T04:28:03.996Z,-5.80
2022-12-13T04:30:30.764Z,-5.80
2022-12-13T04:32:57.477Z,-5.90
2022-12-13T04:35:24.243Z,-5.80
2022-12-13T04:37:51.025Z,-5.90
2022-12-13T04:40:21.507Z,-5.90
2022-12-13T04:42:54.356Z,-5.90
2022-12-13T04:45:21.949Z,-5.90
2022-12-13T04:47:48.838Z,-5.90
2022-12-13T04:50:15.613Z,-5.90
2022-12-13T04:52:42.775Z,-5.90
2022-12-13T04:55:09.800Z,-5.90
2022-12-13T04:57:36.554Z,-6.00
2022-12-13T05:00:05.264Z,-6.00
2022-12-13T05:02:32.011Z,-6.00
2022-12-13T05:04:58.736Z,-6.00
2022-12-13T05:07:26.151Z,-6.10
2022-12-13T05:09:52.922Z,-6.10
2022-12-13T05:12:23.143Z,-6.10
2022-12-13T05:14:51.438Z,-6.10
2022-12-13T05:17:18.246Z,-6.10
2022-12-13T05:19:45.072Z,-6.10
2022-12-13T05:22:20.856Z,-6.10
2022-12-13T05:24:48.379Z,-6.00
2022-12-13T05:27:24.640Z,-5.70
2022-12-13T05:30:02.678Z,-5.70
2022-12-13T05:32:43.919Z,-5.70
2022-12-13T05:35:22.423Z,-5.80
2022-12-13T05:37:54.089Z,-5.90
2022-12-13T05:40:24.464Z,-6.00
2022-12-13T05:42:51.338Z,-6.00
2022-12-13T05:45:18.943Z,-6.10
2022-12-13T05:47:46.497Z,-6.10
2022-12-13T05:50:14.063Z,-6.10
2022-12-13T05:52:40.794Z,-6.20
2022-12-13T05:55:07.793Z,-6.20
2022-12-13T05:57:34.588Z,-6.20
2022-12-13T06:00:01.340Z,-6.30
2022-12-13T06:02:28.400Z,-6.30
2022-12-13T06:04:55.222Z,-6.30
2022-12-13T06:07:21.919Z,-6.30
2022-12-13T06:09:48.629Z,-6.30
2022-12-13T06:12:31.473Z,-6.30
2022-12-13T06:15:01.436Z,-6.30
2022-12-13T06:17:32.850Z,-6.30
2022-12-13T06:19:59.856Z,-6.30
2022-12-13T06:22:27.085Z,-6.30
2022-12-13T06:24:54.001Z,-6.30
2022-12-13T06:27:21.195Z,-6.30
2022-12-13T06:29:47.928Z,-6.30
2022-12-13T06:32:14.762Z,-6.30
2022-12-13T06:34:41.452Z,-6.40
2022-12-13T06:37:10.302Z,-6.30
2022-12-13T06:39:37.177Z,-6.40
2022-12-13T06:42:06.362Z,-6.30
2022-12-13T06:44:34.000Z,-6.40
2022-12-13T06:47:10.652Z,-6.30
2022-12-13T06:49:39.798Z,-6.40
2022-12-13T06:52:11.735Z,-6.40
2022-12-13T06:54:38.531Z,-6.30
2022-12-13T06:57:05.229Z,-6.40
2022-12-13T06:59:31.939Z,-6.40
2022-12-13T07:02:03.629Z,-6.30
2022-12-13T07:04:31.656Z,-6.20
2022-12-13T07:07:01.056Z,-6.30
2022-12-13T07:09:28.560Z,-6.30
2022-12-13T07:11:55.254Z,-6.30
2022-12-13T07:14:22.087Z,-6.30
2022-12-13T07:16:48.843Z,-6.30
2022-12-13T07:19:23.560Z,-6.30
2022-12-13T07:21:51.455Z,-6.30
2022-12-13T07:24:18.204Z,-6.20
2022-12-13T07:26:44.872Z,-6.20
2022-12-13T07:29:11.569Z,-6.30
2022-12-13T07:31:38.300Z,-6.20
2022-12-13T07:34:05.182Z,-6.20
2022-12-13T07:36:31.849Z,-6.20
2022-12-13T07:38:58.892Z,-6.20
2022-12-13T07:41:26.754Z,-6.20
2022-12-13T07:43:55.294Z,-6.10
2022-12-13T07:46:33.235Z,-6.10
2022-12-13T07:49:04.684Z,-6.00
2022-12-13T07:51:33.815Z,-6.10
2022-12-13T07:54:00.753Z,-6.10
2022-12-13T07:56:27.495Z,-6.00
2022-12-13T07:58:54.242Z,-6.00
2022-12-13T08:01:21.008Z,-5.90
2022-12-13T08:03:48.653Z,-5.90
2022-12-13T08:06:15.435Z,-5.90
2022-12-13T08:08:42.218Z,-5.90
2022-12-13T08:11:15.322Z,-5.80
2022-12-13T08:13:42.208Z,-5.80
2022-12-13T08:16:28.158Z,-5.80
2022-12-13T08:19:01.123Z,-5.70
2022-12-13T08:24:20.971Z,-5.70
2022-12-13T08:26:47.703Z,-5.60
2022-12-13T08:29:23.038Z,-5.60
2022-12-13T08:32:01.797Z,-5.60
2022-12-13T08:34:28.769Z,-5.50
2022-12-13T08:37:01.736Z,-5.50
2022-12-13T08:39:34.201Z,-5.50
2022-12-13T08:42:15.735Z,-5.40
2022-12-13T08:44:47.938Z,-5.40
2022-12-13T08:47:23.097Z,-5.30
2022-12-13T08:49:55.938Z,-5.30
2022-12-13T08:52:29.256Z,-5.20
2022-12-13T08:54:56.243Z,-5.20
2022-12-13T08:57:23.205Z,-5.10
2022-12-13T08:59:49.859Z,-5.10
2022-12-13T09:02:16.864Z,-5.00
2022-12-13T09:04:44.348Z,-4.90
2022-12-13T09:07:11.184Z,-4.80
2022-12-13T09:09:38.115Z,-4.80
2022-12-13T09:12:10.305Z,-4.70
2022-12-13T09:14:45.164Z,-4.70
2022-12-13T09:17:24.147Z,-4.60
2022-12-13T09:19:58.136Z,-4.60
2022-12-13T09:22:33.634Z,-4.50
2022-12-13T09:25:02.492Z,-4.40
2022-12-13T09:27:30.912Z,-4.30
2022-12-13T09:30:11.994Z,-4.20
2022-12-13T09:32:40.781Z,-4.10
2022-12-13T09:35:08.218Z,-4.10
2022-12-13T09:37:35.388Z,-4.10
2022-12-13T09:40:16.319Z,-4.00
2022-12-13T09:43:04.548Z,-4.00
2022-12-13T09:45:42.800Z,-3.90
2022-12-13T09:48:14.373Z,-3.90
2022-12-13T09:50:58.374Z,-3.90
2022-12-13T09:53:37.208Z,-3.90
2022-12-13T09:56:10.878Z,-3.90
2022-12-13T09:58:38.145Z,-3.90
2022-12-13T10:01:05.622Z,-3.90
2022-12-13T10:03:32.368Z,-3.90
2022-12-13T10:06:12.469Z,-3.80
2022-12-13T10:08:43.231Z,-3.80
2022-12-13T10:11:13.942Z,-3.80
2022-12-13T10:13:42.861Z,-3.80
2022-12-13T10:16:35.746Z,-3.80
2022-12-13T10:19:28.771Z,-3.80
2022-12-13T10:22:01.238Z,-3.80
2022-12-13T10:24:48.684Z,-3.70
2022-12-13T10:27:17.961Z,-3.70
2022-12-13T10:29:59.771Z,-3.70
2022-12-13T10:32:27.007Z,-3.70
2022-12-13T10:34:55.359Z,-3.70
2022-12-13T10:37:32.163Z,-3.60
2022-12-13T10:39:59.276Z,-3.60
2022-12-13T10:42:32.102Z,-3.50
2022-12-13T10:45:26.926Z,-3.50
2022-12-13T10:47:53.862Z,-3.50
2022-12-13T10:50:29.171Z,-3.40
2022-12-13T10:52:57.312Z,-3.40
2022-12-13T10:55:30.841Z,-3.40
2022-12-13T10:58:03.839Z,-3.30
2022-12-13T11:00:45.318Z,-3.30
2022-12-13T11:03:32.898Z,-3.20
2022-12-13T11:06:11.624Z,-3.20
2022-12-13T11:08:38.666Z,-3.20
2022-12-13T11:11:07.235Z,-3.10
2022-12-13T11:13:40.689Z,-3.10
2022-12-13T11:16:32.904Z,-3.10
2022-12-13T11:19:25.431Z,-3.00
2022-12-13T11:21:54.289Z,-3.00
2022-12-13T11:24:42.232Z,-2.90
2022-12-13T11:27:37.746Z,-2.90
2022-12-13T11:30:19.740Z,-2.80
2022-12-13T11:33:11.379Z,-2.80
2022-12-13T11:35:47.541Z,-2.80
2022-12-13T11:38:49.037Z,-2.70
2022-12-13T11:41:32.342Z,-2.70
2022-12-13T11:44:13.373Z,-2.70
2022-12-13T11:46:46.655Z,-2.70
2022-12-13T11:49:19.701Z,-2.70
2022-12-13T11:52:01.322Z,-2.60
2022-12-13T11:55:01.019Z,-2.60
2022-12-13T11:57:39.970Z,-2.60
2022-12-13T12:00:17.631Z,-2.60
2022-12-13T12:03:37.882Z,-2.60
2022-12-13T12:06:26.082Z,-2.60
2022-12-13T12:08:59.720Z,-2.50
2022-12-13T12:11:28.339Z,-2.60
2022-12-13T12:14:25.164Z,-2.60
2022-12-13T12:16:54.534Z,-2.50
2022-12-13T12:19:24.434Z,-2.50
2022-12-13T12:22:20.566Z,-2.50
2022-12-13T12:25:12.393Z,-2.40
2022-12-13T12:28:09.975Z,-2.40
2022-12-13T12:30:52.214Z,-2.30
2022-12-13T12:33:43.190Z,-2.40
2022-12-13T12:36:23.525Z,-2.40
2022-12-13T12:39:20.023Z,-2.30
2022-12-13T12:42:03.076Z,-2.30
2022-12-13T12:44:48.451Z,-2.30
2022-12-13T12:50:32.888Z,-2.30
2022-12-13T12:53:37.680Z,-2.30
2022-12-13T12:56:25.580Z,-2.30
2022-12-13T12:59:00.401Z,-2.30
2022-12-13T13:01:34.692Z,-2.30
2022-12-13T13:04:08.939Z,-2.30
2022-12-13T13:06:39.978Z,-2.30
2022-12-13T13:09:09.122Z,-2.30
2022-12-13T13:11:43.180Z,-2.30
2022-12-13T13:14:26.968Z,-2.30
2022-12-13T13:16:53.925Z,-2.30
2022-12-13T13:19:25.395Z,-2.30
2022-12-13T13:22:01.932Z,-2.30
2022-12-13T13:24:33.063Z,-2.30
2022-12-13T13:27:29.645Z,-2.20
2022-12-13T13:30:22.783Z,-2.30
2022-12-13T13:32:51.163Z,-2.20
2022-12-13T13:35:33.112Z,-2.30
2022-12-13T13:38:16.983Z,-2.30
2022-12-13T13:40:43.701Z,-2.20
2022-12-13T13:43:10.439Z,-2.20
2022-12-13T13:45:49.449Z,-2.20
2022-12-13T13:48:44.904Z,-2.20
2022-12-13T13:51:29.969Z,-2.20
2022-12-13T13:54:18.475Z,-2.20
2022-12-13T13:57:00.170Z,-2.30
2022-12-13T14:00:06.659Z,-2.30
2022-12-13T14:03:09.041Z,-2.30
2022-12-13T14:06:11.536Z,-2.40
2022-12-13T14:08:41.397Z,-2.40
2022-12-13T14:11:43.276Z,-2.40
2022-12-13T14:14:49.888Z,-2.50
2022-12-13T14:17:45.338Z,-2.50
2022-12-13T14:20:24.150Z,-2.50
2022-12-13T14:23:01.962Z,-2.60
2022-12-13T14:26:11.785Z,-2.60
2022-12-13T14:28:49.653Z,-2.60
2022-12-13T14:31:27.574Z,-2.60
2022-12-13T14:33:56.706Z,-2.60
2022-12-13T14:36:29.151Z,-3.00
2022-12-13T14:39:25.104Z,-1.90
2022-12-13T14:41:57.678Z,-2.70
2022-12-13T14:44:33.789Z,-2.70
2022-12-13T14:47:03.383Z,-2.70
2022-12-13T14:49:36.195Z,-2.60
2022-12-13T14:52:08.565Z,-2.80
2022-12-13T14:54:46.282Z,-2.80
2022-12-13T14:57:21.806Z,-2.80
2022-12-13T14:59:54.596Z,-2.80
2022-12-13T15:02:30.681Z,-2.90
2022-12-13T15:05:00.853Z,-2.90
2022-12-13T15:07:41.350Z,-2.90
2022-12-13T15:10:25.139Z,-3.00
2022-12-13T15:12:53.163Z,-3.00
2022-12-13T15:15:29.862Z,-3.00
2022-12-13T15:18:21.486Z,-3.10
2022-12-13T15:20:49.031Z,-3.10
2022-12-13T15:23:43.192Z,-3.10
2022-12-13T15:26:28.530Z,-3.20
2022-12-13T15:29:10.231Z,-3.20
2022-12-13T15:31:38.248Z,-3.20
2022-12-13T15:34:35.631Z,-3.20
2022-12-13T15:37:06.382Z,-3.20
2022-12-13T15:39:39.108Z,-3.30
2022-12-13T15:42:13.200Z,-3.30
2022-12-13T15:44:54.027Z,-3.30
2022-12-13T15:47:28.590Z,-3.40
2022-12-13T15:50:05.188Z,-3.40
2022-12-13T15:52:33.160Z,-3.40
2022-12-13T15:55:05.843Z,-3.40
2022-12-13T15:57:47.989Z,-3.40
2022-12-13T16:00:17.415Z,-3.40
2022-12-13T16:02:51.211Z,-3.50
2022-12-13T16:05:34.590Z,-3.50
2022-12-13T16:08:17.318Z,-3.50
2022-12-13T16:10:51.527Z,-3.50
2022-12-13T16:13:30.754Z,-3.50
2022-12-13T16:16:09.539Z,-3.50
2022-12-13T16:18:45.764Z,-3.50
2022-12-13T16:21:12.627Z,-3.50
2022-12-13T16:23:39.553Z,-3.50
2022-12-13T16:26:09.232Z,-3.60
2022-12-13T16:28:36.142Z,-3.60
2022-12-13T16:31:17.422Z,-3.50
2022-12-13T16:33:44.808Z,-3.60
2022-12-13T16:36:11.891Z,-3.60
2022-12-13T16:38:39.301Z,-3.50
2022-12-13T16:41:08.187Z,-3.60
2022-12-13T16:43:46.487Z,-3.50
2022-12-13T16:47:11.403Z,-3.50
2022-12-13T16:49:02.354Z,-3.60
2022-12-13T16:51:29.065Z,-3.60
2022-12-13T16:53:55.741Z,-3.60
2022-12-13T16:56:22.455Z,-3.60
2022-12-13T16:58:50.689Z,-3.60
2022-12-13T17:01:21.075Z,-3.50
2022-12-13T17:03:48.191Z,-3.60
2022-12-13T17:06:15.250Z,-3.50
2022-12-13T17:08:41.917Z,-3.50
2022-12-13T17:11:14.697Z,-3.50
2022-12-13T17:13:46.827Z,-3.50
2022-12-13T17:16:14.169Z,-3.50
2022-12-13T17:18:41.136Z,-3.50
2022-12-13T17:21:09.212Z,-3.50
2022-12-13T17:23:36.007Z,-3.50
2022-12-13T17:26:07.076Z,-3.50
2022-12-13T17:28:34.760Z,-3.50
2022-12-13T17:31:10.122Z,-3.50
2022-12-13T17:33:36.858Z,-3.50
2022-12-13T17:36:04.916Z,-3.50
2022-12-13T17:38:31.639Z,-3.50
2022-12-13T17:41:00.614Z,-3.50
2022-12-13T17:43:34.403Z,-3.50
2022-12-13T17:46:08.503Z,-3.50
2022-12-13T17:48:40.447Z,-3.50
2022-12-13T17:51:08.835Z,-3.50
2022-12-13T17:53:36.593Z,-3.50
2022-12-13T17:56:06.366Z,-3.50
2022-12-13T17:58:33.381Z,-3.50
2022-12-13T18:01:13.012Z,-3.50
2022-12-13T18:03:39.953Z,-3.30
2022-12-13T18:06:07.190Z,-3.50
2022-12-13T18:08:38.844Z,-3.50
2022-12-13T18:13:54.936Z,-3.50
2022-12-13T18:16:23.878Z,-3.50
2022-12-13T18:18:54.996Z,-3.50
2022-12-13T18:21:23.000Z,-3.40
2022-12-13T18:23:55.725Z,-3.50
2022-12-13T18:26:24.164Z,-3.50
2022-12-13T18:28:51.194Z,-3.50
2022-12-13T18:31:20.472Z,-3.40
2022-12-13T18:33:48.269Z,-3.40
2022-12-13T18:36:16.594Z,-3.40
2022-12-13T18:38:43.770Z,-3.40
2022-12-13T18:41:18.661Z,-3.50
2022-12-13T18:43:45.790Z,-3.40
2022-12-13T18:46:13.892Z,-3.40
2022-12-13T18:48:41.123Z,-3.40
2022-12-13T18:51:08.965Z,-3.40
2022-12-13T18:53:38.692Z,-3.40
2022-12-13T18:56:18.142Z,-3.40
2022-12-13T18:58:46.897Z,-3.40
2022-12-13T19:01:15.744Z,-3.40
2022-12-13T19:03:44.934Z,-3.40
2022-12-13T19:06:19.301Z,-3.40
2022-12-13T19:08:51.280Z,-3.40
2022-12-13T19:11:18.187Z,-3.40
2022-12-13T19:13:45.062Z,-3.40
2022-12-13T19:16:14.484Z,-3.40
2022-12-13T19:18:41.371Z,-3.40
2022-12-13T19:21:10.306Z,-3.40
2022-12-13T19:23:38.078Z,-3.40
2022-12-13T19:26:07.852Z,-3.40
2022-12-13T19:28:34.863Z,-3.40
2022-12-13T19:31:06.046Z,-3.40
2022-12-13T19:33:33.540Z,-3.40
2022-12-13T19:36:01.150Z,-3.40
2022-12-13T19:38:27.879Z,-3.30
2022-12-13T19:40:54.649Z,-3.40
2022-12-13T19:43:21.499Z,-3.40
2022-12-13T19:45:48.775Z,-3.30
2022-12-13T19:48:16.032Z,-3.30
2022-12-13T19:50:44.216Z,-3.30
2022-12-13T19:53:11.783Z,-3.30
2022-12-13T19:55:44.844Z,-3.30
2022-12-13T19:58:12.496Z,-3.40
2022-12-13T20:00:39.653Z,-3.40
2022-12-13T20:03:06.515Z,-3.40
2022-12-13T20:05:34.005Z,-3.40
2022-12-13T20:08:01.026Z,-3.40
2022-12-13T20:10:28.786Z,-3.40
2022-12-13T20:12:55.943Z,-3.40
2022-12-13T20:15:22.639Z,-3.40
2022-12-13T20:17:49.392Z,-3.40
2022-12-13T20:20:16.295Z,-3.40
2022-12-13T20:22:43.062Z,-3.50
2022-12-13T20:25:10.105Z,-3.40
2022-12-13T20:27:36.932Z,-3.40
2022-12-13T20:30:04.760Z,-3.40
2022-12-13T20:32:31.578Z,-3.40
2022-12-13T20:34:58.265Z,-3.40
2022-12-13T20:37:27.383Z,-3.40
2022-12-13T20:39:54.223Z,-3.50
2022-12-13T20:42:20.904Z,-3.50
2022-12-13T20:44:47.548Z,-3.50
2022-12-13T20:47:14.344Z,-3.50
2022-12-13T20:49:41.289Z,-3.50
2022-12-13T20:52:07.981Z,-3.40
2022-12-13T20:54:36.087Z,-3.40
2022-12-13T20:57:02.819Z,-3.40
2022-12-13T20:59:29.786Z,-3.40
2022-12-13T21:01:56.468Z,-3.40
2022-12-13T21:04:23.401Z,-3.30
2022-12-13T21:06:50.053Z,-3.30
2022-12-13T21:09:17.042Z,-3.20
2022-12-13T21:11:46.880Z,-3.20
2022-12-13T21:14:24.644Z,-3.20
2022-12-13T21:16:52.652Z,-3.20
2022-12-13T21:19:24.672Z,-3.20
2022-12-13T21:21:52.046Z,-3.20
2022-12-13T21:24:20.465Z,-3.20
2022-12-13T21:26:47.599Z,-3.20
2022-12-13T21:29:16.083Z,-3.20
2022-12-13T21:31:48.860Z,-3.20
2022-12-13T21:34:16.983Z,-3.20
2022-12-13T21:36:45.464Z,-3.20
2022-12-13T21:39:13.863Z,-3.20
2022-12-13T21:41:41.558Z,-3.20
2022-12-13T21:44:10.453Z,-3.20
2022-12-13T21:47:10.298Z,-3.20
2022-12-13T21:49:23.987Z,-3.20
2022-12-13T21:51:50.673Z,-3.20
2022-12-13T21:54:18.038Z,-3.20
2022-12-13T21:57:13.920Z,-3.20
2022-12-13T21:59:40.760Z,-3.20
2022-12-13T22:02:16.005Z,-3.20
2022-12-13T22:05:01.399Z,-3.20
2022-12-13T22:07:28.871Z,-3.20
2022-12-13T22:09:56.673Z,-3.20
2022-12-13T22:12:25.502Z,-3.20
2022-12-13T22:14:52.887Z,-3.20
2022-12-13T22:17:20.011Z,-3.20
2022-12-13T22:19:48.551Z,-3.20
2022-12-13T22:22:20.786Z,-3.20
2022-12-13T22:24:53.218Z,-3.20
2022-12-13T22:27:23.707Z,-3.10
2022-12-13T22:29:58.121Z,-3.20
2022-12-13T22:32:26.986Z,-3.20
2022-12-13T22:34:53.746Z,-3.20
2022-12-13T22:37:20.431Z,-3.10
2022-12-13T22:39:47.151Z,-3.20
2022-12-13T22:42:13.949Z,-3.20
2022-12-13T22:44:40.695Z,-3.20
2022-12-13T22:47:07.388Z,-3.20
2022-12-13T22:49:34.265Z,-3.20
2022-12-13T22:52:00.954Z,-3.20
2022-12-13T22:54:27.645Z,-3.20
2022-12-13T22:56:54.365Z,-3.20
2022-12-13T22:59:21.257Z,-3.00
2022-12-13T23:01:48.401Z,-3.20
2022-12-13T23:04:15.317Z,-3.20
2022-12-13T23:06:42.257Z,-3.10
2022-12-13T23:09:12.334Z,-3.20
2022-12-13T23:11:57.695Z,-3.10
2022-12-13T23:14:30.136Z,-3.20
2022-12-13T23:16:57.146Z,-3.10
2022-12-13T23:22:10.662Z,-3.10
2022-12-13T23:24:37.342Z,-3.10
2022-12-13T23:27:04.014Z,-3.10
2022-12-13T23:29:31.252Z,-3.10
2022-12-13T23:31:57.927Z,-3.10
2022-12-13T23:34:24.602Z,-3.10
2022-12-13T23:36:51.243Z,-3.10
2022-12-13T23:39:18.081Z,-3.10
2022-12-13T23:41:44.783Z,-3.10
2022-12-13T23:44:11.549Z,-3.10
2022-12-13T23:46:38.216Z,-3.10
2022-12-13T23:49:06.244Z,-3.00
2022-12-13T23:51:34.357Z,-3.00
2022-12-13T23:54:01.195Z,-3.00
2022-12-13T23:56:28.835Z,-3.20
2022-12-13T23:58:55.832Z,-3.00
